Orlando, Florida
Traffic Map
Current Weather Conditions
Orlando, Florida
Clear
Clear
76°
Feels Like: 76°
Wind Chill: 76° Ceiling: Unl
Heat Index: 76° Visibility: 10mi
Dew Point: 73° Wind: 5mph
Humidity: 91% Direction: 200° (SSW)
Pressure: 30.03in Gusts: 0mph
Raw Report DataKORL 221153Z 20004KT 10SM CLR 24/23 A3003 RMK AO2 SLP171 T02440228 10250 20233 53014
Traffic Incident Summary
Active as of:
Severity:
Category:
InformationThere was an issue retrieving the traffic information for this location. Please try a different location or try again shortly.
Advertisements
Track Severe Weather on mobile